createdAt,value
2022-09-25T00:00:57.206Z,12.10
2022-09-25T00:03:26.661Z,12.10
2022-09-25T00:05:53.522Z,12.20
2022-09-25T00:08:20.383Z,12.10
2022-09-25T00:10:49.961Z,12.10
2022-09-25T00:13:21.116Z,12.10
2022-09-25T00:15:50.325Z,12.10
2022-09-25T00:18:37.512Z,12.10
2022-09-25T00:21:05.530Z,12.10
2022-09-25T00:23:33.689Z,12.10
2022-09-25T00:26:02.054Z,12.10
2022-09-25T00:28:32.008Z,12.10
2022-09-25T00:30:58.832Z,12.10
2022-09-25T00:33:25.648Z,12.10
2022-09-25T00:35:52.370Z,12.10
2022-09-25T00:38:19.061Z,12.10
2022-09-25T00:40:45.808Z,12.10
2022-09-25T00:43:33.175Z,12.10
2022-09-25T00:46:01.820Z,12.10
2022-09-25T00:48:29.600Z,12.10
2022-09-25T00:50:57.095Z,12.10
2022-09-25T00:53:27.271Z,12.10
2022-09-25T00:55:54.407Z,12.10
2022-09-25T00:58:23.547Z,12.10
2022-09-25T01:00:52.104Z,12.10
2022-09-25T01:03:20.186Z,12.10
2022-09-25T01:05:47.270Z,12.10
2022-09-25T01:08:18.488Z,12.10
2022-09-25T01:10:45.206Z,12.10
2022-09-25T01:13:13.028Z,12.00
2022-09-25T01:15:48.380Z,12.00
2022-09-25T01:18:26.637Z,12.00
2022-09-25T01:20:56.462Z,12.00
2022-09-25T01:23:48.399Z,12.00
2022-09-25T01:26:47.310Z,12.00
2022-09-25T01:29:30.611Z,12.00
2022-09-25T01:32:15.740Z,12.00
2022-09-25T01:35:20.572Z,12.00
2022-09-25T01:38:15.208Z,12.00
2022-09-25T01:41:10.415Z,12.00
2022-09-25T01:43:40.161Z,12.00
2022-09-25T01:46:19.514Z,12.00
2022-09-25T01:48:50.235Z,12.00
2022-09-25T01:51:26.858Z,12.00
2022-09-25T01:54:00.480Z,12.00
2022-09-25T01:56:33.681Z,12.00
2022-09-25T01:59:10.810Z,12.00
2022-09-25T02:01:41.017Z,12.00
2022-09-25T02:04:42.631Z,12.00
2022-09-25T02:07:12.482Z,12.00
2022-09-25T02:10:03.615Z,12.00
2022-09-25T02:12:34.985Z,12.00
2022-09-25T02:15:16.030Z,12.00
2022-09-25T02:18:07.253Z,12.10
2022-09-25T02:20:36.490Z,12.00
2022-09-25T02:23:24.795Z,12.00
2022-09-25T02:26:06.063Z,12.00
2022-09-25T02:28:33.167Z,12.00
2022-09-25T02:31:01.013Z,12.00
2022-09-25T02:33:27.886Z,12.00
2022-09-25T02:35:54.618Z,12.00
2022-09-25T02:38:21.587Z,12.00
2022-09-25T02:40:53.546Z,12.00
2022-09-25T02:43:35.544Z,12.00
2022-09-25T02:46:25.630Z,12.00
2022-09-25T02:49:01.539Z,12.00
2022-09-25T02:51:59.308Z,12.10
2022-09-25T02:54:44.108Z,12.00
2022-09-25T02:57:49.214Z,12.10
2022-09-25T03:00:16.264Z,12.10
2022-09-25T03:02:51.417Z,12.10
2022-09-25T03:05:20.144Z,12.10
2022-09-25T03:08:05.567Z,12.10
2022-09-25T03:10:34.233Z,12.10
2022-09-25T03:13:26.577Z,12.10
2022-09-25T03:15:58.909Z,12.10
2022-09-25T03:18:26.419Z,12.10
2022-09-25T03:20:53.172Z,12.00
2022-09-25T03:23:20.102Z,12.00
2022-09-25T03:25:50.302Z,12.00
2022-09-25T03:28:17.286Z,12.00
2022-09-25T03:30:44.447Z,12.00
2022-09-25T03:33:12.364Z,12.00
2022-09-25T03:35:39.741Z,12.00
2022-09-25T03:38:08.316Z,12.00
2022-09-25T03:40:35.064Z,12.00
2022-09-25T03:45:28.896Z,12.00
2022-09-25T03:47:55.601Z,12.00
2022-09-25T03:50:22.299Z,12.00
2022-09-25T03:52:48.985Z,12.00
2022-09-25T03:55:15.793Z,12.00
2022-09-25T03:57:42.904Z,12.00
2022-09-25T04:00:10.427Z,12.00
2022-09-25T04:02:37.407Z,12.00
2022-09-25T04:05:04.547Z,12.00
2022-09-25T04:07:31.288Z,12.00
2022-09-25T04:09:58.008Z,12.00
2022-09-25T04:12:24.682Z,12.00
2022-09-25T04:14:51.442Z,12.00
2022-09-25T04:17:18.345Z,12.00
2022-09-25T04:19:45.034Z,12.00
2022-09-25T04:22:11.741Z,12.00
2022-09-25T04:24:50.434Z,12.00
2022-09-25T04:27:19.179Z,12.00
2022-09-25T04:29:46.719Z,12.00
2022-09-25T04:32:33.633Z,12.00
2022-09-25T04:35:00.529Z,12.00
2022-09-25T04:37:27.421Z,12.00
2022-09-25T04:39:54.984Z,12.00
2022-09-25T04:42:27.601Z,12.00
2022-09-25T04:44:56.046Z,12.00
2022-09-25T04:47:24.275Z,12.00
2022-09-25T04:49:51.272Z,12.00
2022-09-25T04:52:19.972Z,12.00
2022-09-25T04:54:47.683Z,12.00
2022-09-25T04:57:38.854Z,12.00
2022-09-25T05:00:06.942Z,12.00
2022-09-25T05:02:33.915Z,12.00
2022-09-25T05:05:00.706Z,12.00
2022-09-25T05:07:27.453Z,12.00
2022-09-25T05:09:54.267Z,12.00
2022-09-25T05:12:21.373Z,12.00
2022-09-25T05:14:50.521Z,12.00
2022-09-25T05:17:17.237Z,12.00
2022-09-25T05:19:43.967Z,12.10
2022-09-25T05:22:10.713Z,12.10
2022-09-25T05:24:39.154Z,12.10
2022-09-25T05:27:05.929Z,12.10
2022-09-25T05:29:32.838Z,12.10
2022-09-25T05:32:00.448Z,12.10
2022-09-25T05:34:27.161Z,12.00
2022-09-25T05:36:53.877Z,12.00
2022-09-25T05:39:20.625Z,12.00
2022-09-25T05:41:47.342Z,12.00
2022-09-25T05:44:14.964Z,12.00
2022-09-25T05:46:42.207Z,12.00
2022-09-25T05:49:10.239Z,12.00
2022-09-25T05:51:37.019Z,12.10
2022-09-25T05:54:03.842Z,12.10
2022-09-25T05:56:30.593Z,12.10
2022-09-25T05:58:58.633Z,12.10
2022-09-25T06:01:26.122Z,12.10
2022-09-25T06:03:52.937Z,12.10
2022-09-25T06:06:23.845Z,12.10
2022-09-25T06:08:54.510Z,12.20
2022-09-25T06:11:22.485Z,12.20
2022-09-25T06:13:54.174Z,12.20
2022-09-25T06:16:21.382Z,12.20
2022-09-25T06:18:48.416Z,12.20
2022-09-25T06:21:15.175Z,12.10
2022-09-25T06:23:44.926Z,12.20
2022-09-25T06:26:12.536Z,12.20
2022-09-25T06:28:41.984Z,12.20
2022-09-25T06:31:09.189Z,12.20
2022-09-25T06:33:35.922Z,12.30
2022-09-25T06:36:05.458Z,12.30
2022-09-25T06:38:35.032Z,12.40
2022-09-25T06:41:02.150Z,12.40
2022-09-25T06:43:30.069Z,12.40
2022-09-25T06:45:59.632Z,12.50
2022-09-25T06:48:26.347Z,12.50
2022-09-25T06:50:55.220Z,12.60
2022-09-25T06:53:23.481Z,12.70
2022-09-25T06:55:50.720Z,12.70
2022-09-25T06:58:20.447Z,12.80
2022-09-25T07:00:51.976Z,12.80
2022-09-25T07:03:37.977Z,12.90
2022-09-25T07:06:06.255Z,12.90
2022-09-25T07:08:33.363Z,13.00
2022-09-25T07:11:01.511Z,13.00
2022-09-25T07:13:30.254Z,13.00
2022-09-25T07:16:02.095Z,13.00
2022-09-25T07:18:29.725Z,13.10
2022-09-25T07:21:04.914Z,13.10
2022-09-25T07:23:33.442Z,13.10
2022-09-25T07:26:15.176Z,13.10
2022-09-25T07:28:43.371Z,13.10
2022-09-25T07:31:16.118Z,13.10
2022-09-25T07:33:44.037Z,13.20
2022-09-25T07:36:11.798Z,13.20
2022-09-25T07:38:39.312Z,13.20
2022-09-25T07:41:07.222Z,13.20
2022-09-25T07:43:43.839Z,13.20
2022-09-25T07:46:11.334Z,13.20
2022-09-25T07:48:38.377Z,13.20
2022-09-25T07:51:07.023Z,13.20
2022-09-25T07:53:33.941Z,13.20
2022-09-25T07:56:06.121Z,13.20
2022-09-25T07:58:35.450Z,13.20
2022-09-25T08:01:05.255Z,13.20
2022-09-25T08:03:32.404Z,13.10
2022-09-25T08:06:01.076Z,13.10
2022-09-25T08:08:28.624Z,13.10
2022-09-25T08:11:02.893Z,13.10
2022-09-25T08:13:34.993Z,13.10
2022-09-25T08:16:02.908Z,13.10
2022-09-25T08:18:35.977Z,13.10
2022-09-25T08:21:05.896Z,13.10
2022-09-25T08:23:34.138Z,13.20
2022-09-25T08:26:08.042Z,13.20
2022-09-25T08:28:35.507Z,13.20
2022-09-25T08:31:04.189Z,13.20
2022-09-25T08:33:31.959Z,13.30
2022-09-25T08:36:01.309Z,13.30
2022-09-25T08:38:29.037Z,13.30
2022-09-25T08:41:04.272Z,13.40
2022-09-25T08:43:32.859Z,13.40
2022-09-25T08:46:20.327Z,13.40
2022-09-25T08:49:02.218Z,13.40
2022-09-25T08:51:31.508Z,13.40
2022-09-25T08:53:59.167Z,13.40
2022-09-25T08:56:28.444Z,13.40
2022-09-25T08:59:26.259Z,13.40
2022-09-25T09:02:01.296Z,13.40
2022-09-25T09:04:28.005Z,13.50
2022-09-25T09:07:25.039Z,13.50
2022-09-25T09:09:55.262Z,13.50
2022-09-25T09:12:35.831Z,13.60
2022-09-25T09:15:45.198Z,13.50
2022-09-25T09:18:28.577Z,13.40
2022-09-25T09:20:57.671Z,13.40
2022-09-25T09:23:32.908Z,13.30
2022-09-25T09:26:02.634Z,13.30
2022-09-25T09:28:48.625Z,13.30
2022-09-25T09:31:44.646Z,13.30
2022-09-25T09:35:04.375Z,13.30
2022-09-25T09:37:45.394Z,13.30
2022-09-25T09:40:43.562Z,13.20
2022-09-25T09:43:43.101Z,13.20
2022-09-25T09:46:38.122Z,13.20
2022-09-25T09:49:29.631Z,13.20
2022-09-25T09:52:17.436Z,13.20
2022-09-25T09:55:03.686Z,13.20
2022-09-25T09:57:33.614Z,13.20
2022-09-25T10:00:13.568Z,13.20
2022-09-25T10:02:56.997Z,13.20
2022-09-25T10:05:37.574Z,13.20
2022-09-25T10:08:04.492Z,13.20
2022-09-25T10:10:42.411Z,13.30
2022-09-25T10:13:20.406Z,13.30
2022-09-25T10:16:12.808Z,13.40
2022-09-25T10:18:50.401Z,13.40
2022-09-25T10:21:21.289Z,13.50
2022-09-25T10:23:50.824Z,13.50
2022-09-25T10:26:38.071Z,13.60
2022-09-25T10:29:19.822Z,13.60
2022-09-25T10:31:46.741Z,13.70
2022-09-25T10:34:13.423Z,13.70
2022-09-25T10:36:48.198Z,13.70
2022-09-25T10:39:46.196Z,13.70
2022-09-25T10:42:37.985Z,13.70
2022-09-25T10:45:23.001Z,13.70
2022-09-25T10:48:09.319Z,13.80
2022-09-25T10:50:38.927Z,13.80
2022-09-25T10:53:07.468Z,13.80
2022-09-25T10:55:36.440Z,13.70
2022-09-25T10:58:16.958Z,13.70
2022-09-25T11:00:54.505Z,13.70
2022-09-25T11:03:30.124Z,13.80
2022-09-25T11:06:10.760Z,13.80
2022-09-25T11:08:39.239Z,13.80
2022-09-25T11:11:07.320Z,13.90
2022-09-25T11:13:45.823Z,13.90
2022-09-25T11:16:12.986Z,13.80
2022-09-25T11:18:51.170Z,13.80
2022-09-25T11:21:31.639Z,13.80
2022-09-25T11:24:19.858Z,13.80
2022-09-25T11:27:21.716Z,13.80
2022-09-25T11:29:58.070Z,13.80
2022-09-25T11:32:53.150Z,13.70
2022-09-25T11:35:22.571Z,13.70
2022-09-25T11:38:17.171Z,13.80
2022-09-25T11:41:16.385Z,13.80
2022-09-25T11:43:46.958Z,13.80
2022-09-25T11:46:19.379Z,13.80
2022-09-25T11:49:08.547Z,13.90
2022-09-25T11:51:44.133Z,13.90
2022-09-25T11:54:33.906Z,14.00
2022-09-25T11:57:12.457Z,14.00
2022-09-25T11:59:48.718Z,14.10
2022-09-25T12:02:51.667Z,14.10
2022-09-25T12:05:49.198Z,14.10
2022-09-25T12:08:45.614Z,14.00
2022-09-25T12:11:19.343Z,14.00
2022-09-25T12:14:17.184Z,14.00
2022-09-25T12:17:34.366Z,14.00
2022-09-25T12:20:25.994Z,14.00
2022-09-25T12:23:04.446Z,14.10
2022-09-25T12:26:05.343Z,14.20
2022-09-25T12:28:46.782Z,14.40
2022-09-25T12:31:49.555Z,14.60
2022-09-25T12:34:42.703Z,14.70
2022-09-25T12:37:44.658Z,14.70
2022-09-25T12:40:29.034Z,14.70
2022-09-25T12:43:03.053Z,14.70
2022-09-25T12:46:09.981Z,14.60
2022-09-25T12:48:44.101Z,14.50
2022-09-25T12:51:17.233Z,14.40
2022-09-25T12:54:07.060Z,14.40
2022-09-25T12:56:42.228Z,14.40
2022-09-25T12:59:17.350Z,14.40
2022-09-25T13:01:53.644Z,14.40
2022-09-25T13:04:23.467Z,14.40
2022-09-25T13:06:55.266Z,14.40
2022-09-25T13:09:46.921Z,14.30
2022-09-25T13:12:16.940Z,14.30
2022-09-25T13:14:53.195Z,14.30
2022-09-25T13:17:20.168Z,14.20
2022-09-25T13:19:46.890Z,14.20
2022-09-25T13:22:25.271Z,14.20
2022-09-25T13:24:57.996Z,14.20
2022-09-25T13:27:25.403Z,14.20
2022-09-25T13:29:55.714Z,14.10
2022-09-25T13:32:24.408Z,14.10
2022-09-25T13:34:55.459Z,14.10
2022-09-25T13:37:29.219Z,14.10
2022-09-25T13:40:14.659Z,14.10
2022-09-25T13:42:45.421Z,14.10
2022-09-25T13:45:29.941Z,14.10
2022-09-25T13:48:12.472Z,14.20
2022-09-25T13:50:46.812Z,14.20
2022-09-25T13:53:24.782Z,14.20
2022-09-25T13:55:57.631Z,14.20
2022-09-25T13:58:26.597Z,14.20
2022-09-25T14:00:57.414Z,14.20
2022-09-25T14:03:49.983Z,14.20
2022-09-25T14:06:25.663Z,14.20
2022-09-25T14:08:56.782Z,14.10
2022-09-25T14:11:29.086Z,14.10
2022-09-25T14:13:56.752Z,14.10
2022-09-25T14:16:50.657Z,14.10
2022-09-25T14:19:21.134Z,14.10
2022-09-25T14:21:48.759Z,14.10
2022-09-25T14:24:42.953Z,14.00
2022-09-25T14:27:23.022Z,14.10
2022-09-25T14:29:50.086Z,14.10
2022-09-25T14:32:50.701Z,14.10
2022-09-25T14:35:28.212Z,14.10
2022-09-25T14:38:00.967Z,14.20
2022-09-25T14:40:40.373Z,14.20
2022-09-25T14:43:34.730Z,14.30
2022-09-25T14:46:10.227Z,14.40
2022-09-25T14:48:46.154Z,14.40
2022-09-25T14:51:15.202Z,14.50
2022-09-25T14:53:49.474Z,14.50
2022-09-25T14:56:16.318Z,14.50
2022-09-25T14:58:52.503Z,14.50
2022-09-25T15:01:32.344Z,14.40
2022-09-25T15:04:05.083Z,14.40
2022-09-25T15:06:34.025Z,14.40
2022-09-25T15:09:03.805Z,14.40
2022-09-25T15:11:42.626Z,14.40
2022-09-25T15:14:17.361Z,14.40
2022-09-25T15:17:03.323Z,14.30
2022-09-25T15:19:49.052Z,14.30
2022-09-25T15:22:20.295Z,14.20
2022-09-25T15:24:59.223Z,14.20
2022-09-25T15:27:28.339Z,14.20
2022-09-25T15:29:55.818Z,14.10
2022-09-25T15:32:28.620Z,14.10
2022-09-25T15:35:18.400Z,14.10
2022-09-25T15:37:46.382Z,14.00
2022-09-25T15:40:28.712Z,14.00
2022-09-25T15:42:57.656Z,14.00
2022-09-25T15:45:35.681Z,13.90
2022-09-25T15:48:21.741Z,13.90
2022-09-25T15:50:48.797Z,13.90
2022-09-25T15:53:30.410Z,13.80
2022-09-25T15:56:04.311Z,13.80
2022-09-25T15:58:33.075Z,13.80
2022-09-25T16:01:20.512Z,13.70
2022-09-25T16:04:09.322Z,13.70
2022-09-25T16:06:45.751Z,13.60
2022-09-25T16:09:23.802Z,13.60
2022-09-25T16:11:50.654Z,13.60
2022-09-25T16:14:31.484Z,13.60
2022-09-25T16:16:58.496Z,13.60
2022-09-25T16:19:25.115Z,13.60
2022-09-25T16:21:52.522Z,13.60
2022-09-25T16:24:22.654Z,13.50
2022-09-25T16:27:00.754Z,13.50
2022-09-25T16:29:30.414Z,13.50
2022-09-25T16:32:02.343Z,13.50
2022-09-25T16:34:32.620Z,13.50
2022-09-25T16:37:03.039Z,13.50
2022-09-25T16:39:37.796Z,13.50
2022-09-25T16:42:29.641Z,13.50
2022-09-25T16:45:08.965Z,13.50
2022-09-25T16:47:35.720Z,13.40
2022-09-25T16:50:02.675Z,13.40
2022-09-25T16:52:32.080Z,13.40
2022-09-25T16:55:00.847Z,13.40
2022-09-25T16:57:27.885Z,13.30
2022-09-25T16:59:54.776Z,13.30
2022-09-25T17:02:37.003Z,13.20
2022-09-25T17:05:07.035Z,13.20
2022-09-25T17:07:33.827Z,13.20
2022-09-25T17:10:01.479Z,13.10
2022-09-25T17:12:30.082Z,13.10
2022-09-25T17:14:57.328Z,13.10
2022-09-25T17:17:24.075Z,13.00
2022-09-25T17:19:50.850Z,13.00
2022-09-25T17:22:17.653Z,13.00
2022-09-25T17:24:44.442Z,12.90
2022-09-25T17:27:12.935Z,12.90
2022-09-25T17:29:40.657Z,12.90
2022-09-25T17:32:12.104Z,12.80
2022-09-25T17:34:39.149Z,12.70
2022-09-25T17:37:05.892Z,12.70
2022-09-25T17:39:32.580Z,12.70
2022-09-25T17:41:59.298Z,12.60
2022-09-25T17:44:26.136Z,12.60
2022-09-25T17:46:55.307Z,12.50
2022-09-25T17:49:23.304Z,12.50
2022-09-25T17:51:50.291Z,12.40
2022-09-25T17:54:17.421Z,12.40
2022-09-25T17:56:46.154Z,12.40
2022-09-25T17:59:14.434Z,12.30
2022-09-25T18:01:41.617Z,12.30
2022-09-25T18:04:24.182Z,12.20
2022-09-25T18:06:51.842Z,12.20
2022-09-25T18:09:19.005Z,12.10
2022-09-25T18:11:46.012Z,12.10
2022-09-25T18:14:13.799Z,12.00
2022-09-25T18:16:43.017Z,11.90
2022-09-25T18:19:36.502Z,11.90
2022-09-25T18:22:19.525Z,11.80
2022-09-25T18:24:48.060Z,11.70
2022-09-25T18:27:15.258Z,11.70
2022-09-25T18:29:42.198Z,11.60
2022-09-25T18:32:09.397Z,11.50
2022-09-25T18:34:39.341Z,11.40
2022-09-25T18:37:06.746Z,11.40
2022-09-25T18:39:34.444Z,11.30
2022-09-25T18:42:01.393Z,11.20
2022-09-25T18:44:31.360Z,11.20
2022-09-25T18:46:58.598Z,11.10
2022-09-25T18:49:26.577Z,11.00
2022-09-25T18:51:53.599Z,10.90
2022-09-25T18:54:21.461Z,10.80
2022-09-25T18:56:48.814Z,10.70
2022-09-25T18:59:15.586Z,10.70
2022-09-25T19:01:43.350Z,10.60
2022-09-25T19:04:16.845Z,10.50
2022-09-25T19:06:43.645Z,10.50
2022-09-25T19:09:16.130Z,10.40
2022-09-25T19:11:43.712Z,10.40
2022-09-25T19:14:14.760Z,10.30
2022-09-25T19:16:41.826Z,10.20
2022-09-25T19:19:09.291Z,10.20
2022-09-25T19:21:36.076Z,10.10
2022-09-25T19:24:03.096Z,10.10
2022-09-25T19:26:31.040Z,10.00
2022-09-25T19:28:57.778Z,9.90
2022-09-25T19:31:25.905Z,9.90
2022-09-25T19:33:53.609Z,9.90
2022-09-25T19:36:21.762Z,9.80
2022-09-25T19:38:49.279Z,9.80
2022-09-25T19:41:26.285Z,9.70
2022-09-25T19:43:54.518Z,9.70
2022-09-25T19:46:21.288Z,9.60
2022-09-25T19:48:48.599Z,9.60
2022-09-25T19:51:21.145Z,9.50
2022-09-25T19:53:48.437Z,9.50
2022-09-25T19:56:15.868Z,9.40
2022-09-25T19:58:43.042Z,9.40
2022-09-25T20:01:18.801Z,9.30
2022-09-25T20:03:45.584Z,9.30
2022-09-25T20:06:12.898Z,9.20
2022-09-25T20:08:39.734Z,9.20
2022-09-25T20:11:20.756Z,9.10
2022-09-25T20:13:49.251Z,9.10
2022-09-25T20:16:18.479Z,9.10
2022-09-25T20:18:58.011Z,9.00
2022-09-25T20:21:26.220Z,8.90
2022-09-25T20:23:54.773Z,8.90
2022-09-25T20:26:23.262Z,8.90
2022-09-25T20:28:56.918Z,8.80
2022-09-25T20:31:24.432Z,8.80
2022-09-25T20:33:51.510Z,8.70
2022-09-25T20:36:18.518Z,8.70
2022-09-25T20:38:49.393Z,8.60
2022-09-25T20:41:16.164Z,8.60
2022-09-25T20:43:44.114Z,8.60
2022-09-25T20:46:13.400Z,8.60
2022-09-25T20:48:44.709Z,8.50
2022-09-25T20:51:14.952Z,8.50
2022-09-25T20:53:42.478Z,8.50
2022-09-25T20:56:11.389Z,8.50
2022-09-25T20:58:39.456Z,8.50
2022-09-25T21:01:08.831Z,8.50
2022-09-25T21:03:38.114Z,8.50
2022-09-25T21:06:17.650Z,8.50
2022-09-25T21:08:45.070Z,8.50
2022-09-25T21:11:12.307Z,8.40
2022-09-25T21:13:40.039Z,8.40
2022-09-25T21:16:12.182Z,8.40
2022-09-25T21:18:40.698Z,8.40
2022-09-25T21:21:12.946Z,8.40
2022-09-25T21:23:43.561Z,8.30
2022-09-25T21:26:14.686Z,8.30
2022-09-25T21:28:43.625Z,8.30
2022-09-25T21:31:13.504Z,8.30
2022-09-25T21:33:40.338Z,8.30
2022-09-25T21:36:10.227Z,8.30
2022-09-25T21:38:37.295Z,8.30
2022-09-25T21:41:06.709Z,8.20
2022-09-25T21:43:34.958Z,8.20
2022-09-25T21:46:06.286Z,8.20
2022-09-25T21:48:34.878Z,8.20
2022-09-25T21:51:02.215Z,8.20
2022-09-25T21:53:28.918Z,8.20
2022-09-25T21:56:02.495Z,8.20
2022-09-25T21:58:30.076Z,8.20
2022-09-25T22:01:27.488Z,8.20
2022-09-25T22:03:56.798Z,8.20
2022-09-25T22:06:33.620Z,8.20
2022-09-25T22:09:03.334Z,8.20
2022-09-25T22:11:30.381Z,8.20
2022-09-25T22:13:58.027Z,8.10
2022-09-25T22:16:27.525Z,8.10
2022-09-25T22:19:14.707Z,8.10
2022-09-25T22:21:42.705Z,8.10
2022-09-25T22:24:09.963Z,8.10
2022-09-25T22:26:39.302Z,8.00
2022-09-25T22:29:06.436Z,8.10
2022-09-25T22:31:34.602Z,8.10
2022-09-25T22:34:04.780Z,8.10
2022-09-25T22:36:31.961Z,8.10
2022-09-25T22:38:58.765Z,8.00
2022-09-25T22:41:25.464Z,8.00
2022-09-25T22:43:53.528Z,8.00
2022-09-25T22:46:21.910Z,8.00
2022-09-25T22:48:48.989Z,8.10
2022-09-25T22:51:18.771Z,8.10
2022-09-25T22:53:45.567Z,8.10
2022-09-25T22:56:22.761Z,8.10
2022-09-25T22:58:52.533Z,8.10
2022-09-25T23:01:22.876Z,8.10
2022-09-25T23:03:53.915Z,8.20
2022-09-25T23:06:20.788Z,8.20
2022-09-25T23:08:54.945Z,8.20
2022-09-25T23:11:22.121Z,8.20
2022-09-25T23:13:50.618Z,8.20
2022-09-25T23:16:18.318Z,8.20
2022-09-25T23:18:45.219Z,8.20
2022-09-25T23:21:11.925Z,8.20
2022-09-25T23:23:38.869Z,8.20
2022-09-25T23:26:08.242Z,8.30
2022-09-25T23:28:36.432Z,8.30
2022-09-25T23:31:15.488Z,8.30
2022-09-25T23:33:43.240Z,8.40
2022-09-25T23:36:12.818Z,8.40
2022-09-25T23:38:39.583Z,8.40
2022-09-25T23:41:20.494Z,8.40
2022-09-25T23:43:48.525Z,8.40
2022-09-25T23:46:16.514Z,8.40
2022-09-25T23:48:44.402Z,8.40
2022-09-25T23:51:12.095Z,8.40
2022-09-25T23:53:39.246Z,8.50
2022-09-25T23:56:08.123Z,8.50
2022-09-25T23:58:35.301Z,8.50
